createdAt,value
2022-09-06T00:01:58.610Z,54.77
2022-09-06T00:07:04.196Z,55.43
2022-09-06T00:12:10.891Z,57.15
2022-09-06T00:17:16.139Z,56.77
2022-09-06T00:22:21.807Z,56.73
2022-09-06T00:27:28.037Z,56.37
2022-09-06T00:32:33.661Z,57.03
2022-09-06T00:37:38.690Z,55.77
2022-09-06T00:42:44.222Z,55.97
2022-09-06T00:47:49.326Z,56.17
2022-09-06T00:52:54.924Z,56.87
2022-09-06T00:58:01.492Z,55.15
2022-09-06T01:03:08.416Z,54.73
2022-09-06T01:08:38.855Z,56.03
2022-09-06T01:13:50.344Z,56.67
2022-09-06T01:19:02.011Z,56.13
2022-09-06T01:24:29.001Z,55.83
2022-09-06T01:29:46.478Z,55.92
2022-09-06T01:35:10.048Z,56.57
2022-09-06T01:40:15.586Z,54.43
2022-09-06T01:45:27.329Z,53.70
2022-09-06T01:50:44.617Z,53.97
2022-09-06T01:55:58.927Z,54.83
2022-09-06T02:01:15.991Z,54.93
2022-09-06T02:06:34.302Z,56.33
2022-09-06T02:11:42.877Z,55.53
2022-09-06T02:16:51.771Z,55.10
2022-09-06T02:21:59.609Z,54.97
2022-09-06T02:27:06.000Z,54.70
2022-09-06T02:32:23.570Z,54.10
2022-09-06T02:37:28.685Z,53.90
2022-09-06T02:42:34.870Z,54.60
2022-09-06T02:47:39.883Z,54.60
2022-09-06T02:52:45.597Z,54.33
2022-09-06T02:57:50.528Z,54.40
2022-09-06T03:02:56.793Z,52.93
2022-09-06T03:08:02.556Z,52.93
2022-09-06T03:18:13.207Z,53.90
2022-09-06T03:23:20.800Z,54.77
2022-09-06T03:28:26.668Z,53.93
2022-09-06T03:33:32.050Z,53.75
2022-09-06T03:38:37.820Z,53.00
2022-09-06T03:43:43.261Z,53.40
2022-09-06T03:48:50.018Z,53.73
2022-09-06T03:53:56.040Z,53.03
2022-09-06T03:59:02.509Z,52.87
2022-09-06T04:04:07.841Z,52.83
2022-09-06T04:09:13.393Z,53.20
2022-09-06T04:14:19.238Z,53.83
2022-09-06T04:19:24.985Z,52.50
2022-09-06T04:24:30.866Z,54.73
2022-09-06T04:34:41.291Z,53.23
2022-09-06T04:39:47.573Z,51.13
2022-09-06T04:44:52.915Z,52.05
2022-09-06T04:49:57.912Z,51.53
2022-09-06T04:55:03.435Z,53.00
2022-09-06T05:00:10.455Z,52.43
2022-09-06T05:05:15.987Z,52.80
2022-09-06T05:10:21.797Z,52.43
2022-09-06T05:15:26.809Z,52.33
2022-09-06T05:20:33.077Z,51.13
2022-09-06T05:25:40.119Z,52.30
2022-09-06T05:30:46.919Z,52.37
2022-09-06T05:40:57.541Z,52.55
2022-09-06T05:51:12.552Z,52.25
2022-09-06T05:56:19.022Z,53.23
2022-09-06T06:06:34.211Z,52.15
2022-09-06T06:11:40.067Z,53.67
2022-09-06T06:32:33.105Z,56.17
2022-09-06T06:42:44.502Z,52.48
2022-09-06T06:47:53.204Z,51.27
2022-09-06T06:52:58.639Z,51.10
2022-09-06T06:58:04.716Z,50.30
2022-09-06T07:03:11.193Z,51.58
2022-09-06T07:08:17.307Z,50.62
2022-09-06T07:13:23.147Z,50.90
2022-09-06T07:18:28.798Z,50.97
2022-09-06T07:28:43.157Z,51.07
2022-09-06T07:33:55.125Z,51.53
2022-09-06T07:38:58.691Z,51.13
2022-09-06T07:44:03.868Z,51.37
2022-09-06T07:49:10.505Z,51.53
2022-09-06T07:54:31.875Z,51.00
2022-09-06T07:59:23.336Z,51.55
2022-09-06T08:04:28.608Z,52.13
2022-09-06T08:09:34.434Z,50.53
2022-09-06T08:14:40.498Z,50.75
2022-09-06T08:19:46.265Z,51.20
2022-09-06T08:24:51.492Z,51.37
2022-09-06T08:29:57.243Z,51.47
2022-09-06T08:40:07.398Z,50.30
2022-09-06T08:45:19.074Z,51.60
2022-09-06T08:50:27.331Z,50.92
2022-09-06T08:55:57.616Z,51.20
2022-09-06T09:15:09.065Z,52.57
2022-09-06T09:20:14.954Z,51.65
2022-09-06T09:25:26.761Z,52.13
2022-09-06T09:30:49.045Z,52.10
2022-09-06T09:35:56.508Z,51.77
2022-09-06T09:41:05.176Z,52.08
2022-09-06T09:46:26.283Z,52.10
2022-09-06T09:51:33.496Z,52.63
2022-09-06T09:56:45.416Z,51.85
2022-09-06T10:01:52.936Z,51.80
2022-09-06T10:07:10.510Z,51.67
2022-09-06T10:12:21.839Z,51.83
2022-09-06T10:17:36.128Z,51.57
2022-09-06T10:22:53.217Z,51.83
2022-09-06T10:28:31.100Z,50.90
2022-09-06T10:34:03.186Z,52.40
2022-09-06T10:39:11.491Z,52.60
2022-09-06T10:44:39.746Z,51.87
2022-09-06T10:49:48.812Z,51.33
2022-09-06T10:54:57.974Z,51.83
2022-09-06T11:00:14.578Z,52.03
2022-09-06T11:05:38.401Z,51.95
2022-09-06T11:10:32.027Z,51.75
2022-09-06T11:32:17.138Z,52.63
2022-09-06T11:37:10.675Z,52.43
2022-09-06T11:42:48.518Z,52.14
2022-09-06T11:47:55.006Z,52.13
2022-09-06T11:53:04.651Z,52.90
2022-09-06T11:58:22.792Z,51.23
2022-09-06T12:04:07.439Z,51.75
2022-09-06T12:08:58.459Z,52.43
2022-09-06T12:14:11.083Z,52.07
2022-09-06T12:19:52.462Z,52.03
2022-09-06T12:25:21.987Z,52.40
2022-09-06T12:30:45.339Z,51.97
2022-09-06T12:41:00.606Z,52.57
2022-09-06T12:46:08.020Z,52.33
2022-09-06T12:51:21.644Z,52.33
2022-09-06T12:56:29.856Z,51.80
2022-09-06T13:01:38.220Z,52.00
2022-09-06T13:06:46.744Z,52.33
2022-09-06T13:11:55.974Z,52.35
2022-09-06T13:17:01.534Z,52.63
2022-09-06T13:22:10.553Z,52.63
2022-09-06T13:27:37.539Z,53.13
2022-09-06T13:32:48.879Z,52.95
2022-09-06T13:37:54.466Z,52.33
2022-09-06T13:43:02.751Z,52.63
2022-09-06T13:48:28.314Z,52.53
2022-09-06T13:53:18.628Z,53.10
2022-09-06T13:58:24.573Z,52.87
2022-09-06T14:03:32.475Z,53.33
2022-09-06T14:09:03.349Z,52.47
2022-09-06T14:13:46.686Z,52.73
2022-09-06T14:18:53.117Z,54.73
2022-09-06T14:24:03.882Z,53.83
2022-09-06T14:29:07.711Z,54.53
2022-09-06T14:34:13.131Z,53.13
2022-09-06T14:39:19.100Z,54.08
2022-09-06T14:44:25.097Z,53.17
2022-09-06T14:49:30.432Z,52.70
2022-09-06T14:54:36.462Z,53.00
2022-09-06T14:59:41.926Z,53.38
2022-09-06T15:04:47.902Z,53.80
2022-09-06T15:09:53.238Z,52.60
2022-09-06T15:14:58.414Z,52.50
2022-09-06T15:20:03.877Z,53.00
2022-09-06T15:25:09.722Z,52.50
2022-09-06T15:30:15.444Z,52.98
2022-09-06T15:35:21.532Z,52.33
2022-09-06T15:40:27.277Z,51.70
2022-09-06T15:45:34.796Z,51.75
2022-09-06T15:50:51.344Z,51.73
2022-09-06T15:55:56.912Z,51.70
2022-09-06T16:01:14.504Z,52.07
2022-09-06T16:06:26.181Z,51.83
2022-09-06T16:11:34.225Z,51.60
2022-09-06T16:16:41.004Z,51.97
2022-09-06T16:21:46.575Z,52.27
2022-09-06T16:26:52.699Z,52.20
2022-09-06T16:32:00.007Z,52.30
2022-09-06T16:37:09.289Z,52.87
2022-09-06T16:42:15.465Z,53.03
2022-09-06T16:47:20.710Z,52.20
2022-09-06T16:52:26.241Z,52.73
2022-09-06T16:57:32.702Z,53.20
2022-09-06T17:02:37.829Z,54.03
2022-09-06T17:07:43.877Z,52.03
2022-09-06T17:12:49.108Z,52.47
2022-09-06T17:17:54.990Z,52.70
2022-09-06T17:23:00.207Z,52.53
2022-09-06T17:28:06.330Z,53.80
2022-09-06T17:33:13.594Z,53.33
2022-09-06T17:38:21.840Z,55.63
2022-09-06T17:48:31.648Z,53.00
2022-09-06T17:53:37.938Z,52.60
2022-09-06T17:58:44.171Z,51.63
2022-09-06T18:03:49.617Z,51.67
2022-09-06T18:08:56.845Z,52.20
2022-09-06T18:14:05.137Z,52.23
2022-09-06T18:19:10.804Z,51.55
2022-09-06T18:24:16.849Z,51.83
2022-09-06T18:29:23.804Z,52.43
2022-09-06T18:34:29.942Z,52.70
2022-09-06T18:39:36.035Z,51.37
2022-09-06T18:44:42.241Z,51.83
2022-09-06T18:49:48.020Z,51.97
2022-09-06T18:54:52.970Z,52.03
2022-09-06T18:59:58.802Z,51.53
2022-09-06T19:05:04.800Z,51.90
2022-09-06T19:10:11.022Z,52.23
2022-09-06T19:15:17.781Z,51.58
2022-09-06T19:20:24.235Z,53.13
2022-09-06T19:25:31.537Z,52.70
2022-09-06T19:30:37.239Z,52.80
2022-09-06T19:35:55.872Z,52.40
2022-09-06T19:40:49.747Z,51.67
2022-09-06T19:45:54.631Z,51.77
2022-09-06T19:51:04.601Z,51.07
2022-09-06T19:56:18.543Z,50.93
2022-09-06T20:01:25.201Z,51.57
2022-09-06T20:06:31.579Z,51.50
2022-09-06T20:16:43.356Z,52.40
2022-09-06T20:21:49.225Z,53.70
2022-09-06T20:26:55.295Z,52.57
2022-09-06T20:32:00.906Z,51.43
2022-09-06T20:37:06.282Z,51.97
2022-09-06T20:42:11.653Z,53.07
2022-09-06T20:47:16.633Z,53.42
2022-09-06T20:52:22.055Z,53.17
2022-09-06T20:57:27.567Z,52.17
2022-09-06T21:02:32.532Z,52.20
2022-09-06T21:07:39.178Z,51.90
2022-09-06T21:12:44.846Z,51.77
2022-09-06T21:17:50.219Z,53.70
2022-09-06T21:22:56.313Z,53.90
2022-09-06T21:28:01.650Z,53.77
2022-09-06T21:33:07.459Z,53.60
2022-09-06T21:38:14.041Z,52.98
2022-09-06T21:43:19.535Z,53.90
2022-09-06T21:48:25.752Z,52.83
2022-09-06T21:53:33.861Z,54.18
2022-09-06T21:58:38.919Z,54.03
2022-09-06T22:03:46.136Z,55.80
2022-09-06T22:08:51.249Z,55.07
2022-09-06T22:14:01.527Z,55.20
2022-09-06T22:19:09.715Z,54.77
2022-09-06T22:24:18.129Z,54.77
2022-09-06T22:29:23.099Z,53.53
2022-09-06T22:34:30.052Z,53.15
2022-09-06T22:39:35.872Z,54.15
2022-09-06T22:44:41.971Z,53.60
2022-09-06T22:49:47.639Z,53.58
2022-09-06T22:54:53.097Z,52.87
2022-09-06T22:59:59.994Z,52.80
2022-09-06T23:05:05.801Z,51.88
2022-09-06T23:10:12.400Z,52.40
2022-09-06T23:15:17.937Z,52.60
2022-09-06T23:20:25.950Z,53.50
2022-09-06T23:25:31.896Z,53.60
2022-09-06T23:30:38.898Z,53.42
2022-09-06T23:35:44.646Z,53.23
2022-09-06T23:40:49.691Z,52.83
2022-09-06T23:45:55.346Z,52.40
2022-09-06T23:51:00.633Z,53.37
2022-09-06T23:56:07.509Z,52.78
